createdAt,value
2023-08-29T00:02:42.744Z,99033.03
2023-08-29T00:05:45.332Z,99028.50
2023-08-29T00:08:47.744Z,99021.16
2023-08-29T00:11:50.582Z,99016.25
2023-08-29T00:14:53.060Z,99017.84
2023-08-29T00:17:55.514Z,99006.88
2023-08-29T00:20:57.949Z,99006.22
2023-08-29T00:24:00.341Z,99004.72
2023-08-29T00:27:02.747Z,99008.91
2023-08-29T00:30:05.856Z,99013.81
2023-08-29T00:33:10.646Z,99025.53
2023-08-29T00:36:14.991Z,99091.47
2023-08-29T00:39:17.578Z,99116.88
2023-08-29T00:42:20.020Z,99060.88
2023-08-29T00:45:23.534Z,99111.66
2023-08-29T00:48:26.647Z,99064.94
2023-08-29T00:51:30.989Z,99026.34
2023-08-29T00:54:33.985Z,99076.06
2023-08-29T00:57:36.534Z,99073.31
2023-08-29T01:00:40.072Z,99067.09
2023-08-29T01:03:42.690Z,99061.38
2023-08-29T01:06:45.137Z,99055.03
2023-08-29T01:09:47.654Z,99070.38
2023-08-29T01:13:00.286Z,99055.28
2023-08-29T01:16:06.668Z,99052.31
2023-08-29T01:19:14.897Z,99064.00
2023-08-29T01:22:45.474Z,99052.94
2023-08-29T01:26:23.688Z,99045.13
2023-08-29T01:29:27.224Z,99041.78
2023-08-29T01:32:29.927Z,99053.16
2023-08-29T01:35:32.722Z,99047.72
2023-08-29T01:38:35.262Z,99051.66
2023-08-29T01:41:37.670Z,99018.72
2023-08-29T01:44:40.178Z,99024.13
2023-08-29T01:47:44.187Z,99026.19
2023-08-29T01:50:47.073Z,99028.56
2023-08-29T01:53:49.593Z,99042.28
2023-08-29T01:56:54.091Z,99044.84
2023-08-29T01:59:58.501Z,99030.50
2023-08-29T02:03:01.245Z,99016.22
2023-08-29T02:06:04.297Z,99014.69
2023-08-29T02:09:06.717Z,99041.69
2023-08-29T02:12:11.697Z,99030.81
2023-08-29T02:15:14.088Z,99024.84
2023-08-29T02:18:16.566Z,99024.69
2023-08-29T02:21:18.984Z,99032.25
2023-08-29T02:24:21.374Z,99020.13
2023-08-29T02:27:23.770Z,99025.81
2023-08-29T02:30:28.710Z,99031.13
2023-08-29T02:33:31.785Z,99015.75
2023-08-29T02:36:34.232Z,99012.97
2023-08-29T02:39:36.828Z,99026.88
2023-08-29T02:42:39.942Z,99023.13
2023-08-29T02:45:42.346Z,99010.81
2023-08-29T02:48:45.548Z,99016.22
2023-08-29T02:51:48.045Z,99011.53
2023-08-29T02:54:50.454Z,99007.84
2023-08-29T02:57:52.887Z,99012.88
2023-08-29T03:00:58.867Z,99017.50
2023-08-29T03:04:01.474Z,99011.41
2023-08-29T03:07:05.470Z,98996.28
2023-08-29T03:10:08.941Z,98991.22
2023-08-29T03:13:11.345Z,98996.81
2023-08-29T03:16:17.396Z,98992.81
2023-08-29T03:19:21.457Z,98975.88
2023-08-29T03:22:23.891Z,98980.44
2023-08-29T03:25:26.659Z,98982.78
2023-08-29T03:28:29.163Z,98978.16
2023-08-29T03:31:31.730Z,98996.16
2023-08-29T03:34:36.425Z,98989.94
2023-08-29T03:37:40.723Z,98990.44
2023-08-29T03:40:43.380Z,98983.25
2023-08-29T03:43:45.850Z,98981.34
2023-08-29T03:46:48.234Z,98983.69
2023-08-29T03:49:50.862Z,98978.16
2023-08-29T03:52:53.299Z,98977.78
2023-08-29T03:55:55.737Z,98986.19
2023-08-29T03:58:58.189Z,98982.34
2023-08-29T04:02:01.587Z,98974.91
2023-08-29T04:05:15.842Z,98975.47
2023-08-29T04:08:18.745Z,98963.19
2023-08-29T04:11:21.228Z,98966.63
2023-08-29T04:14:23.835Z,98965.72
2023-08-29T04:17:26.243Z,98967.94
2023-08-29T04:20:29.952Z,98968.59
2023-08-29T04:23:32.354Z,98969.25
2023-08-29T04:26:36.012Z,98968.97
2023-08-29T04:29:38.577Z,98967.38
2023-08-29T04:32:41.125Z,98971.88
2023-08-29T04:35:43.705Z,98973.28
2023-08-29T04:38:48.579Z,98967.50
2023-08-29T04:41:51.647Z,98979.91
2023-08-29T04:44:55.212Z,98983.34
2023-08-29T04:47:57.746Z,98996.56
2023-08-29T04:51:00.170Z,99014.69
2023-08-29T04:54:02.544Z,99034.78
2023-08-29T04:57:07.956Z,99040.16
2023-08-29T05:00:14.007Z,99033.31
2023-08-29T05:03:18.676Z,99053.31
2023-08-29T05:06:21.275Z,99051.56
2023-08-29T05:09:25.268Z,99062.25
2023-08-29T05:12:27.659Z,99068.13
2023-08-29T05:15:30.156Z,99060.41
2023-08-29T05:18:32.598Z,99064.56
2023-08-29T05:21:35.780Z,99072.38
2023-08-29T05:24:38.409Z,99053.56
2023-08-29T05:27:40.825Z,99057.47
2023-08-29T05:30:44.132Z,99047.22
2023-08-29T05:33:46.618Z,99042.88
2023-08-29T05:36:50.471Z,99037.91
2023-08-29T05:39:53.816Z,99029.31
2023-08-29T05:42:56.266Z,99023.88
2023-08-29T05:45:58.895Z,99016.09
2023-08-29T05:49:01.384Z,99009.44
2023-08-29T05:52:04.152Z,99013.50
2023-08-29T05:55:07.050Z,99008.03
2023-08-29T05:58:09.752Z,99012.28
2023-08-29T06:01:12.499Z,99016.69
2023-08-29T06:04:15.078Z,99020.81
2023-08-29T06:07:17.464Z,99020.59
2023-08-29T06:10:20.103Z,99023.72
2023-08-29T06:13:22.512Z,99039.16
2023-08-29T06:16:24.925Z,99050.59
2023-08-29T06:19:27.337Z,99052.25
2023-08-29T06:22:30.396Z,99060.59
2023-08-29T06:25:32.799Z,99065.44
2023-08-29T06:28:35.384Z,99077.44
2023-08-29T06:31:37.824Z,99073.16
2023-08-29T06:34:41.066Z,99081.41
2023-08-29T06:37:43.461Z,99090.47
2023-08-29T06:40:45.829Z,99074.22
2023-08-29T06:43:48.357Z,99083.81
2023-08-29T06:46:50.816Z,99077.28
2023-08-29T06:49:56.812Z,99085.78
2023-08-29T06:52:59.486Z,99083.81
2023-08-29T06:56:02.064Z,99080.47
2023-08-29T06:59:04.600Z,99095.84
2023-08-29T07:02:07.554Z,99096.06
2023-08-29T07:05:11.076Z,99086.41
2023-08-29T07:08:13.981Z,99080.53
2023-08-29T07:11:16.401Z,99076.53
2023-08-29T07:14:18.799Z,99058.22
2023-08-29T07:17:21.274Z,99068.91
2023-08-29T07:20:23.782Z,99061.81
2023-08-29T07:23:27.064Z,99060.06
2023-08-29T07:26:29.539Z,99060.81
2023-08-29T07:29:32.085Z,99064.63
2023-08-29T07:32:34.602Z,99064.63
2023-08-29T07:35:37.015Z,99061.22
2023-08-29T07:38:39.531Z,99066.13
2023-08-29T07:41:41.931Z,99072.47
2023-08-29T07:44:44.824Z,99073.47
2023-08-29T07:47:50.467Z,99068.38
2023-08-29T07:50:53.256Z,99067.31
2023-08-29T07:53:55.817Z,99056.78
2023-08-29T07:56:58.298Z,99082.06
2023-08-29T08:00:01.090Z,99088.53
2023-08-29T08:03:04.335Z,99099.91
2023-08-29T08:06:07.597Z,99096.81
2023-08-29T08:09:10.040Z,99098.06
2023-08-29T08:12:12.500Z,99096.31
2023-08-29T08:15:15.813Z,99086.56
2023-08-29T08:18:18.295Z,99103.78
2023-08-29T08:21:22.225Z,99093.78
2023-08-29T08:24:24.768Z,99100.38
2023-08-29T08:27:27.332Z,99097.97
2023-08-29T08:30:30.187Z,99094.63
2023-08-29T08:33:32.654Z,99114.03
2023-08-29T08:36:35.137Z,99122.94
2023-08-29T08:39:37.669Z,99105.97
2023-08-29T08:42:45.370Z,99098.63
2023-08-29T08:45:48.558Z,99089.59
2023-08-29T08:48:51.429Z,99101.69
2023-08-29T08:51:55.250Z,99116.34
2023-08-29T08:54:57.665Z,99112.78
2023-08-29T08:58:01.312Z,99095.41
2023-08-29T09:01:04.412Z,99077.16
2023-08-29T09:04:06.992Z,99079.44
2023-08-29T09:07:09.461Z,99076.63
2023-08-29T09:10:13.828Z,99080.56
2023-08-29T09:13:19.364Z,99091.81
2023-08-29T09:16:22.894Z,99085.94
2023-08-29T09:19:26.494Z,99082.22
2023-08-29T09:22:28.955Z,99088.31
2023-08-29T09:25:31.350Z,99085.34
2023-08-29T09:28:34.232Z,99088.47
2023-08-29T09:31:36.671Z,99093.28
2023-08-29T09:34:39.246Z,99095.97
2023-08-29T09:37:43.572Z,99109.28
2023-08-29T09:40:50.632Z,99122.56
2023-08-29T09:43:53.154Z,99128.97
2023-08-29T09:46:55.884Z,99131.38
2023-08-29T09:49:58.320Z,99122.56
2023-08-29T09:53:01.578Z,99122.53
2023-08-29T09:56:12.062Z,99118.50
2023-08-29T09:59:18.597Z,99124.25
2023-08-29T10:02:22.741Z,99142.41
2023-08-29T10:05:29.287Z,99139.81
2023-08-29T10:08:40.152Z,99157.34
2023-08-29T10:11:54.181Z,99152.91
2023-08-29T10:14:58.723Z,99159.22
2023-08-29T10:18:01.468Z,99180.34
2023-08-29T10:21:05.676Z,99179.56
2023-08-29T10:24:08.836Z,99168.09
2023-08-29T10:27:11.574Z,99192.72
2023-08-29T10:30:15.725Z,99193.16
2023-08-29T10:33:19.631Z,99203.41
2023-08-29T10:36:25.247Z,99205.38
2023-08-29T10:39:28.497Z,99212.16
2023-08-29T10:42:49.572Z,99206.22
2023-08-29T10:45:54.768Z,99201.91
2023-08-29T10:48:59.551Z,99201.00
2023-08-29T10:52:11.613Z,99193.72
2023-08-29T10:55:25.883Z,99190.56
2023-08-29T10:58:35.057Z,99201.22
2023-08-29T11:01:40.632Z,99210.47
2023-08-29T11:04:55.914Z,99187.03
2023-08-29T11:08:24.370Z,99183.66
2023-08-29T11:11:26.806Z,99189.69
2023-08-29T11:14:49.683Z,99175.94
2023-08-29T11:18:20.956Z,99177.94
2023-08-29T11:21:24.058Z,99167.47
2023-08-29T11:24:26.468Z,99168.13
2023-08-29T11:27:30.432Z,99166.97
2023-08-29T11:30:42.604Z,99168.78
2023-08-29T11:33:50.384Z,99163.41
2023-08-29T11:36:52.967Z,99156.44
2023-08-29T11:39:57.147Z,99153.34
2023-08-29T11:43:05.710Z,99155.56
2023-08-29T11:46:13.803Z,99152.34
2023-08-29T11:49:17.475Z,99150.19
2023-08-29T11:52:20.154Z,99141.53
2023-08-29T11:55:25.159Z,99137.03
2023-08-29T11:58:29.079Z,99139.69
2023-08-29T12:01:37.636Z,99134.44
2023-08-29T12:04:41.300Z,99140.06
2023-08-29T12:07:45.386Z,99121.25
2023-08-29T12:10:52.485Z,99117.34
2023-08-29T12:14:02.379Z,99115.53
2023-08-29T12:17:05.653Z,99111.53
2023-08-29T12:20:14.623Z,99111.38
2023-08-29T12:23:27.584Z,99105.56
2023-08-29T12:26:30.022Z,99102.53
2023-08-29T12:29:32.963Z,99098.19
2023-08-29T12:32:35.701Z,99091.06
2023-08-29T12:35:40.074Z,99083.97
2023-08-29T12:38:42.561Z,99090.94
2023-08-29T12:41:45.007Z,99083.75
2023-08-29T12:44:47.430Z,99088.13
2023-08-29T12:47:51.960Z,99093.47
2023-08-29T12:50:54.568Z,99106.31
2023-08-29T12:53:56.997Z,99098.22
2023-08-29T12:56:59.426Z,99106.84
2023-08-29T13:00:02.201Z,99101.75
2023-08-29T13:03:04.985Z,99110.16
2023-08-29T13:06:08.956Z,99112.97
2023-08-29T13:09:15.312Z,99113.34
2023-08-29T13:12:26.058Z,99106.22
2023-08-29T13:15:41.036Z,99091.31
2023-08-29T13:18:51.289Z,99092.34
2023-08-29T13:21:53.714Z,99083.03
2023-08-29T13:24:56.107Z,99085.53
2023-08-29T13:27:58.965Z,99082.59
2023-08-29T13:31:02.307Z,99083.84
2023-08-29T13:34:04.732Z,99076.53
2023-08-29T13:37:07.257Z,99086.81
2023-08-29T13:40:09.930Z,99078.63
2023-08-29T13:43:12.373Z,99070.75
2023-08-29T13:46:14.883Z,99077.34
2023-08-29T13:49:17.356Z,99060.06
2023-08-29T13:52:22.777Z,99045.56
2023-08-29T13:55:25.760Z,99048.75
2023-08-29T13:58:28.561Z,99035.56
2023-08-29T14:01:31.361Z,99033.94
2023-08-29T14:04:33.775Z,99027.25
2023-08-29T14:07:36.231Z,99018.72
2023-08-29T14:10:38.642Z,99025.78
2023-08-29T14:13:41.124Z,99027.53
2023-08-29T14:16:43.801Z,99021.72
2023-08-29T14:19:46.378Z,99032.16
2023-08-29T14:22:48.846Z,99023.09
2023-08-29T14:25:51.328Z,99018.69
2023-08-29T14:28:53.768Z,99023.66
2023-08-29T14:31:56.183Z,99022.69
2023-08-29T14:34:58.565Z,99018.44
2023-08-29T14:38:00.995Z,99015.94
2023-08-29T14:41:13.773Z,99022.16
2023-08-29T14:44:16.130Z,99024.84
2023-08-29T14:47:18.532Z,99034.72
2023-08-29T14:50:21.535Z,99039.69
2023-08-29T14:53:26.131Z,99035.41
2023-08-29T14:56:28.519Z,99038.59
2023-08-29T14:59:30.913Z,99042.56
2023-08-29T15:02:33.546Z,99046.44
2023-08-29T15:05:36.037Z,99055.31
2023-08-29T15:08:38.850Z,99054.22
2023-08-29T15:11:41.809Z,99069.72
2023-08-29T15:14:44.221Z,99066.91
2023-08-29T15:17:46.777Z,99073.47
2023-08-29T15:20:50.007Z,99047.28
2023-08-29T15:23:52.485Z,99036.75
2023-08-29T15:41:59.799Z,99037.41
2023-08-29T15:45:02.773Z,99039.16
2023-08-29T15:48:07.399Z,99051.50
2023-08-29T15:51:10.159Z,99039.34
2023-08-29T15:54:12.565Z,99014.81
2023-08-29T15:57:15.243Z,99020.44
2023-08-29T16:00:17.976Z,99025.09
2023-08-29T16:03:22.246Z,99020.63
2023-08-29T16:06:24.744Z,99032.19
2023-08-29T16:09:30.787Z,99032.38
2023-08-29T16:12:33.230Z,99031.88
2023-08-29T16:15:36.090Z,99037.28
2023-08-29T16:18:38.657Z,99053.06
2023-08-29T16:21:41.028Z,99033.91
2023-08-29T16:24:45.531Z,99037.00
2023-08-29T16:27:47.915Z,99035.94
2023-08-29T16:30:50.292Z,99039.78
2023-08-29T16:33:52.775Z,99038.38
2023-08-29T16:36:55.162Z,99041.28
2023-08-29T16:39:57.749Z,99044.41
2023-08-29T16:43:00.218Z,99037.63
2023-08-29T16:46:02.805Z,99029.97
2023-08-29T16:49:05.443Z,99033.53
2023-08-29T16:52:08.338Z,99011.66
2023-08-29T16:55:10.851Z,99012.75
2023-08-29T16:58:13.377Z,99030.69
2023-08-29T17:01:16.426Z,99031.91
2023-08-29T17:04:18.916Z,99039.00
2023-08-29T17:07:21.468Z,99050.63
2023-08-29T17:10:23.907Z,99079.19
2023-08-29T17:13:26.326Z,99064.69
2023-08-29T17:16:28.788Z,99069.81
2023-08-29T17:19:31.258Z,99078.00
2023-08-29T17:22:34.786Z,99086.66
2023-08-29T17:25:37.436Z,99098.31
2023-08-29T17:28:39.834Z,99097.84
2023-08-29T17:31:42.225Z,99096.59
2023-08-29T17:34:44.875Z,99099.44
2023-08-29T17:37:47.260Z,99098.56
2023-08-29T17:40:49.655Z,99101.78
2023-08-29T17:43:52.054Z,99101.53
2023-08-29T17:46:54.463Z,99094.59
2023-08-29T17:49:57.066Z,99106.50
2023-08-29T17:52:59.502Z,99094.50
2023-08-29T17:56:01.867Z,99102.13
2023-08-29T17:59:04.949Z,99091.84
2023-08-29T18:02:07.337Z,99076.88
2023-08-29T18:05:11.336Z,99057.13
2023-08-29T18:08:14.209Z,99066.31
2023-08-29T18:11:18.284Z,99074.75
2023-08-29T18:14:20.710Z,99070.19
2023-08-29T18:17:23.144Z,99069.31
2023-08-29T18:20:25.864Z,99072.59
2023-08-29T18:23:28.837Z,99069.75
2023-08-29T18:26:32.242Z,99072.09
2023-08-29T18:29:34.622Z,99081.34
2023-08-29T18:32:37.232Z,99065.63
2023-08-29T18:35:41.236Z,99066.25
2023-08-29T18:38:43.642Z,99061.38
2023-08-29T18:41:46.161Z,99064.41
2023-08-29T18:44:48.792Z,99050.69
2023-08-29T18:47:51.470Z,99054.91
2023-08-29T18:50:53.873Z,99040.13
2023-08-29T18:53:56.432Z,99050.38
2023-08-29T18:56:58.784Z,99040.38
2023-08-29T19:00:01.463Z,99030.84
2023-08-29T19:03:04.663Z,99023.88
2023-08-29T19:06:13.967Z,99031.38
2023-08-29T19:09:17.848Z,99042.56
2023-08-29T19:12:20.520Z,99041.25
2023-08-29T19:15:23.509Z,99035.91
2023-08-29T19:18:26.077Z,99035.94
2023-08-29T19:21:28.456Z,99054.50
2023-08-29T19:24:30.857Z,99067.88
2023-08-29T19:27:33.562Z,99074.88
2023-08-29T19:30:36.206Z,99069.06
2023-08-29T19:33:38.910Z,99066.19
2023-08-29T19:36:41.890Z,99075.44
2023-08-29T19:39:44.303Z,99068.47
2023-08-29T19:42:46.915Z,99063.66
2023-08-29T19:45:49.276Z,99061.38
2023-08-29T19:48:52.306Z,99071.63
2023-08-29T19:51:56.818Z,99077.72
2023-08-29T19:55:00.609Z,99073.03
2023-08-29T19:58:03.914Z,99077.38
2023-08-29T20:01:07.392Z,99084.72
2023-08-29T20:04:10.373Z,99094.56
2023-08-29T20:07:12.999Z,99099.38
2023-08-29T20:10:15.397Z,99106.88
2023-08-29T20:13:17.802Z,99112.59
2023-08-29T20:16:20.498Z,99114.53
2023-08-29T20:19:25.220Z,99109.41
2023-08-29T20:22:28.023Z,99111.56
2023-08-29T20:25:30.599Z,99127.97
2023-08-29T20:28:32.968Z,99140.03
2023-08-29T20:31:35.607Z,99149.19
2023-08-29T20:34:39.109Z,99161.31
2023-08-29T20:37:43.981Z,99141.16
2023-08-29T20:40:49.085Z,99166.34
2023-08-29T20:43:51.701Z,99152.56
2023-08-29T20:46:54.071Z,99168.75
2023-08-29T20:49:56.490Z,99175.63
2023-08-29T20:52:58.890Z,99197.53
2023-08-29T20:56:01.305Z,99203.91
2023-08-29T20:59:03.756Z,99215.50
2023-08-29T21:02:06.849Z,99193.94
2023-08-29T21:05:10.080Z,99192.38
2023-08-29T21:08:12.718Z,99183.53
2023-08-29T21:11:15.136Z,99182.00
2023-08-29T21:14:17.535Z,99192.13
2023-08-29T21:17:22.231Z,99193.34
2023-08-29T21:20:24.751Z,99186.56
2023-08-29T21:23:27.874Z,99192.56
2023-08-29T21:26:30.232Z,99187.09
2023-08-29T21:29:32.692Z,99193.44
2023-08-29T21:32:35.059Z,99182.56
2023-08-29T21:35:39.759Z,99223.78
2023-08-29T21:38:44.073Z,99243.63
2023-08-29T21:41:46.448Z,99249.31
2023-08-29T21:44:52.345Z,99248.53
2023-08-29T21:47:54.794Z,99236.44
2023-08-29T21:50:58.281Z,99246.22
2023-08-29T21:54:00.648Z,99237.16
2023-08-29T21:57:03.063Z,99234.25
2023-08-29T22:00:08.463Z,99222.50
2023-08-29T22:03:14.564Z,99215.81
2023-08-29T22:06:17.076Z,99213.84
2023-08-29T22:09:19.434Z,99224.47
2023-08-29T22:12:22.335Z,99206.94
2023-08-29T22:15:24.858Z,99205.44
2023-08-29T22:18:27.225Z,99207.94
2023-08-29T22:21:29.594Z,99204.88
2023-08-29T22:24:31.952Z,99207.38
2023-08-29T22:27:34.435Z,99202.75
2023-08-29T22:30:39.651Z,99221.66
2023-08-29T22:33:42.764Z,99230.94
2023-08-29T22:36:45.292Z,99236.34
2023-08-29T22:39:50.985Z,99227.38
2023-08-29T22:42:53.947Z,99222.16
2023-08-29T22:45:56.429Z,99224.91
2023-08-29T22:48:59.013Z,99233.41
2023-08-29T22:52:01.730Z,99236.47
2023-08-29T22:55:05.857Z,99226.97
2023-08-29T22:58:08.431Z,99227.72
2023-08-29T23:01:11.104Z,99232.78
2023-08-29T23:04:13.573Z,99222.03
2023-08-29T23:07:15.932Z,99218.31
2023-08-29T23:10:18.843Z,99203.25
2023-08-29T23:13:21.316Z,99198.06
2023-08-29T23:16:23.730Z,99209.50
2023-08-29T23:19:26.707Z,99198.50
2023-08-29T23:22:29.085Z,99207.84
2023-08-29T23:25:31.508Z,99197.78
2023-08-29T23:28:36.717Z,99195.69
2023-08-29T23:31:41.237Z,99206.63
2023-08-29T23:34:43.700Z,99219.41
2023-08-29T23:37:46.808Z,99210.38
2023-08-29T23:40:49.471Z,99210.59
2023-08-29T23:43:51.864Z,99203.69
2023-08-29T23:46:55.688Z,99214.22
2023-08-29T23:49:58.170Z,99201.66
2023-08-29T23:53:00.642Z,99205.84
2023-08-29T23:56:03.906Z,99205.75
2023-08-29T23:59:06.605Z,99208.06
